Lac La Biche, Alberta

Conditions des dernières 24 heures

Date / Heure
(HAR)
Conditions Temp
(°C)
Humidité
(%)
Point de rosée
(°C)
Vent
(km/h)
Pression
(kPa)
Visibilité
(km)
22 mai 2015
17:00 N.D. 26   12 -6 NNE 4 101,6 N.D.
16:00 N.D. 25 13 -5 NE 10 101,6 N.D.
15:00 N.D. 25 13 -6 NE 4 101,6 N.D.
14:00 N.D. 25 14 -4 NE 11 101,6 N.D.
13:00 N.D. 24 14 -5 NE 11 101,6 N.D.
12:00 N.D. 23 17 -3 ENE 7 101,6 N.D.
11:00 N.D. 22 20 -2 ENE 3 101,6 N.D.
10:00 N.D. 20 25 -1 calme 101,6 N.D.
9:00 N.D. 16 36 1 SSE 3 101,6 N.D.
8:00 N.D. 13 49 2 calme 101,6 N.D.
7:00 N.D. 9 69 4 calme 101,6 N.D.
6:00 N.D. 7   67 1 calme 101,6 N.D.
5:00 N.D. 7   73 3 SSO 2 101,5 N.D.
4:00 N.D. 7   67 2 SSO 2 101,5 N.D.
3:00 N.D. 8 63 2 calme 101,5 N.D.
2:00 N.D. 9 61 2 SSO 4 101,5 N.D.
1:00 N.D. 10 56 2 S 2 101,5 N.D.
0:00 N.D. 12 49 1 calme 101,5 N.D.
21 mai 2015
23:00 N.D. 12 49 1 OSO 2 101,5 N.D.
22:00 N.D. 15 38 1 calme 101,5 N.D.
21:00 N.D. 21 18 -4 ESE 4 101,5 N.D.
20:00 N.D. 23 14 -6 SE 5 101,5 N.D.
19:00 N.D. 23 13 -7 SE 6 101,5 N.D.
18:00 N.D. 24 13 -6 S 10 101,5 N.D.
17:00 N.D. 24 12 -7 SSE 14 101,6 N.D.
N.D. non disponible
↑ température la plus haute
↓ température la plus basse

Si vous désirez plus de données historiques sur les conditions météo, s.v.p. visitez Données climatologiques en ligne.

Ce que nous faisons

Date de modification :